• Join FlightAware (Why Join?)
  • Login
  • US Flag 
04:31AM EDT


 

Airport Tracker/Info


-or-


 

Live Flight TrackerFlight Track Log ✈ AVN11 ✈ 05-Jan-2014 ✈ YSSY / SYD - NVVV / VLI

Flight Track Log - Related Links

Times and Time Zones

All times are in EST time to prevent confusion due to time zone crossing. See the AVN11 flight status page for this flight to view local times or setup timezone preferences in your user account.

Time Position Orientation Groundspeed Altitude Reporting Facility
EST Latitude Longitude Course Direction KTS MPH feet Rate Location/Type
08:03PM -33.9631 151.1918 352° North 115 132  Level FlightAware ADS-B (YRAY)
08:04PM -33.9492 151.1881 348° North 147 169 500 1,980 Climbing FlightAware ADS-B (YRAY)
08:04PM -33.9481 151.1878 348° North 155 178 1,100 2,460 Climbing FlightAware ADS-B (YSSY / SYD)
08:04PM -33.9370 151.1870 356° North 155 178 1,200 1,500 Climbing FlightAware ADS-B
08:04PM -33.9330 151.1892 24° Northeast 151 174 1,400 1,620 Climbing FlightAware ADS-B (YRPA)
08:04PM -33.9274 151.2011 61° Northeast 168 193 1,800 1,440 Climbing FlightAware ADS-B (YRAY)
08:04PM -33.9286 151.2106 99° East 179 206 2,000 1,500 Climbing FlightAware ADS-B (YRPA)
08:05PM -33.9327 151.2195 119° Southeast 187 215 2,300 1,680 Climbing FlightAware ADS-B (YRAY)
08:05PM -33.9366 151.2293 116° Southeast 190 219 2,600 1,320 Climbing FlightAware ADS-B (YRPA)
08:05PM -33.9380 151.2409 98° East 192 221 2,800 1,200 Climbing FlightAware ADS-B (YSSY / SYD)
08:05PM -33.9377 151.2460 86° East 194 223 2,900 1,560 Climbing FlightAware ADS-B
08:05PM -33.9371 151.2625 88° East 209 241 3,300 1,500 Climbing FlightAware ADS-B (YRAY)
08:06PM -33.9369 151.2842 89° East 233 268 3,600 960 Climbing FlightAware ADS-B (YPLB)
08:06PM -33.9365 151.3027 88° East 257 296 3,800 960 Climbing FlightAware ADS-B (YRPA)
08:06PM -33.9359 151.3199 88° East 270 311 4,100 1,080 Climbing FlightAware ADS-B
08:06PM -33.9354 151.3362 88° East 283 326 4,200 960 Climbing FlightAware ADS-B (YRPA)
08:07PM -33.9344 151.3700 88° East 312 359 4,600 1,380 Climbing FlightAware ADS-B (YRPA)
08:07PM -33.9332 151.3900 86° East 322 371 5,100 2,100 Climbing FlightAware ADS-B (YSSY / SYD)
08:07PM -33.9238 151.4196 69° East 319 367 6,000 2,520 Climbing FlightAware ADS-B (YSSY / SYD)
08:08PM -33.8980 151.4608 53° Northeast 325 374 6,800 1,980 Climbing FlightAware ADS-B (YSSY / SYD)
08:08PM -33.8768 151.4937 52° Northeast 340 391 7,400 1,920 Climbing FlightAware ADS-B (YRPA)
08:08PM -33.8564 151.5253 52° Northeast 349 402 8,200 1,680 Climbing FlightAware ADS-B (YRAY)
08:09PM -33.8372 151.5549 52° Northeast 366 421 8,500 1,320 Climbing FlightAware ADS-B (YRPA)
08:09PM -33.8148 151.5891 52° Northeast 372 428 9,100 1,800 Climbing FlightAware ADS-B (YRPA)
08:09PM -33.8027 151.6075 52° Northeast 375 432 9,500 1,980 Climbing FlightAware ADS-B (YRPA)
08:10PM -33.7678 151.6609 52° Northeast 390 449 10,500 2,220 Climbing FlightAware ADS-B (YRPA)
08:10PM -33.7415 151.7012 52° Northeast 395 455 11,300 1,860 Climbing FlightAware ADS-B (YPLB)
08:10PM -33.7248 151.7266 52° Northeast 397 457 11,700 1,740 Climbing FlightAware ADS-B (YRPA)
08:11PM -33.6954 151.7714 52° Northeast 409 471 12,500 1,980 Climbing FlightAware ADS-B (YPLB)
08:11PM -33.6906 151.7787 52° Northeast 406 467 12,700 1,980 Climbing FlightAware ADS-B (YRPA)
08:12PM -33.6579 151.8284 52° Northeast 422 486 14,700 2,040 Climbing FlightAware ADS-B (YSSY / SYD)
08:12PM -33.5767 151.9514 52° Northeast 419 482 15,900 1,920 Climbing Aus ATC (RADAR)
08:13PM -33.5236 152.0316 52° Northeast 447 514 17,100 1,860 Climbing FlightAware ADS-B (YPLB)
08:14PM -33.4701 152.1126 52° Northeast 456 525 18,300 1,680 Climbing FlightAware ADS-B (YPLB)
08:14PM -33.4181 152.1907 51° Northeast 463 533 19,400 1,500 Climbing FlightAware ADS-B (YPLB)
08:14PM -33.4090 152.2043 51° Northeast 466 536 19,600 1,500 Climbing FlightAware ADS-B (YRPA)
08:15PM -33.3372 152.3117 51° Northeast 477 549 20,900 1,500 Climbing FlightAware ADS-B (YPLB)
08:15PM -33.3347 152.3154 51° Northeast 473 544 21,000 1,680 Climbing FlightAware ADS-B (YRPA)
08:16PM -33.2796 152.3978 51° Northeast 483 556 22,100 1,620 Climbing FlightAware ADS-B (YPLB)
08:17PM -33.2258 152.4782 51° Northeast 489 563 23,000 1,140 Climbing FlightAware ADS-B (YPLB)
08:17PM -33.1856 152.5383 51° Northeast 481 554 23,500 1,140 Climbing Aus ATC (RADAR)
08:17PM -33.1659 152.5673 51° Northeast 498 573 23,800 1,260 Climbing FlightAware ADS-B (YPLB)
08:18PM -33.1084 152.6524 51° Northeast 506 582 24,500 1,200 Climbing FlightAware ADS-B (YPLB)
08:19PM -33.0512 152.7373 51° Northeast 510 587 25,400 1,200 Climbing FlightAware ADS-B (YPLB)
08:19PM -32.9930 152.8234 51° Northeast 517 595 26,100 1,020 Climbing FlightAware ADS-B (YPLB)
08:20PM -32.9328 152.9122 51° Northeast 524 603 26,800 840 Climbing FlightAware ADS-B (YPLB)
08:20PM -32.8886 152.9776 51° Northeast 515 593 27,200 1,260 Climbing Aus ATC (RADAR)
08:21PM -32.8705 153.0040 51° Northeast 524 603 27,700 1,620 Climbing FlightAware ADS-B (YPLB)
08:21PM -32.8278 153.0666 51° Northeast 512 589 28,300 1,500 Climbing Aus ATC (RADAR)
08:21PM -32.8111 153.0913 51° Northeast 520 598 28,700 1,500 Climbing FlightAware ADS-B (YPLB)
08:22PM -32.7611 153.1646 51° Northeast 515 593 29,400 1,020 Climbing FlightAware ADS-B (YRPA)
08:22PM -32.7144 153.2329 51° Northeast 508 585 29,900 1,020 Climbing Aus ATC (RADAR)
08:23PM -32.6938 153.2626 51° Northeast 518 596 30,200 1,200 Climbing FlightAware ADS-B (YRPA)
08:23PM -32.6394 153.3418 51° Northeast 518 596 30,900 1,200 Climbing FlightAware ADS-B (YRPA)
08:24PM -32.5676 153.4465 51° Northeast 520 598 31,800 1,260 Climbing FlightAware ADS-B (YPLB)
08:25PM -32.5062 153.5359 51° Northeast 517 595 32,700 1,140 Climbing FlightAware ADS-B (YPLB)
08:25PM -32.4662 153.5943 51° Northeast 516 594 33,200 1,200 Climbing Aus ATC (RADAR)
08:25PM -32.4434 153.6267 51° Northeast 513 590 33,500 1,020 Climbing FlightAware ADS-B (YPLB)
08:26PM -32.4048 153.6825 51° Northeast 512 589 33,900 660 Climbing FlightAware ADS-B (YRPA)
08:26PM -32.3510 153.7603 51° Northeast 502 578 34,300 720 Climbing Aus ATC (RADAR)
08:27PM -32.3227 153.8009 51° Northeast 519 597 34,500 720 Climbing FlightAware ADS-B (YPLB)
08:27PM -32.2658 153.8832 51° Northeast 525 604 34,900 300 Climbing FlightAware ADS-B (YPLB)
08:28PM -32.2129 153.9589 51° Northeast 510 587 34,900 120 Level Aus ATC (RADAR)
08:28PM -32.2004 153.9771 51° Northeast 527 606 35,000  Climbing FlightAware ADS-B (YPLB)
08:29PM -32.1513 154.0476 51° Northeast 510 587 34,900  Descending Aus ATC (RADAR)
08:29PM -32.1383 154.0656 51° Northeast 525 604 35,000 120 Climbing FlightAware ADS-B (YPLB)
08:29PM -32.0780 154.1512 50° Northeast 523 602 35,000 -120 Level FlightAware ADS-B (YPLB)
08:30PM -32.0298 154.2200 50° Northeast 522 601 34,900  Descending Aus ATC (RADAR)
08:30PM -32.0150 154.2407 50° Northeast 523 602 35,000 120 Climbing FlightAware ADS-B (YPLB)
08:31PM -31.9512 154.3313 50° Northeast 522 601 35,000 -120 Level FlightAware ADS-B (YPLB)
08:31PM -31.9042 154.3976 50° Northeast 505 581 34,900  Descending Aus ATC (RADAR)
08:32PM -31.8614 154.4585 50° Northeast 520 598 35,000  Climbing FlightAware ADS-B (YPLB)
08:33PM -31.7364 154.6349 50° Northeast 519 597 35,000 -60 Level FlightAware ADS-B (YPLB)
08:34PM -31.6898 154.7001 50° Northeast 498 573 34,900  Descending Aus ATC (RADAR)
08:34PM -31.6751 154.7211 50° Northeast 519 597 35,000  Climbing FlightAware ADS-B (YPLB)
08:34PM -31.6307 154.7835 50° Northeast 513 590 34,900 -120 Descending Aus ATC (RADAR)
08:35PM -31.5596 154.8828 50° Northeast 500 575 34,900 120 Level Aus ATC (RADAR)
08:35PM -31.5480 154.8991 50° Northeast 515 593 35,000 60 Climbing FlightAware ADS-B (YPLB)
08:36PM -31.4352 155.0563 50° Northeast 512 589 35,000  Level FlightAware ADS-B (YPLB)
08:37PM -31.3872 155.1232 50° Northeast 510 587 35,000 -180 Level FlightAware ADS-B (YPLB)
08:37PM -31.3926 155.1157 50° Northeast 493 567 34,900 -120 Descending Aus ATC (RADAR)
08:38PM -31.2734 155.2826 50° Northeast 483 556 34,900  Level Aus ATC (RADAR)
08:38PM -31.2435 155.3241 50° Northeast 482 555 34,900  Level Aus ATC (RADAR)
08:39PM -31.1985 155.3864 50° Northeast 482 555 34,900  Level Aus ATC (RADAR)
08:40PM -31.1241 155.4870 49° Northeast 499 574 34,900  Level Aus ATC (RADAR)
08:40PM -31.0944 155.5280 50° Northeast 497 572 34,900  Level Aus ATC (RADAR)
08:41PM -31.0498 155.5893 50° Northeast 496 571 34,900  Level Aus ATC (RADAR)
08:41PM -30.9755 155.6911 50° Northeast 495 570 34,900  Level Aus ATC (RADAR)
08:42PM -30.9457 155.7320 50° Northeast 496 571 34,900  Level Aus ATC (RADAR)
08:43PM -30.8038 155.9251 49° Northeast 496 571 34,900  Level Aus ATC (RADAR)
08:44PM -30.7817 155.9577 52° Northeast 475 547 35,000  Climbing Aus ATC (RADAR)
08:44PM -30.7351 156.0159 47° Northeast 498 573 34,900 -120 Descending Aus ATC (RADAR)
08:45PM -30.6499 156.1283 49° Northeast 504 580 34,900  Level Aus ATC (RADAR)
08:45PM -30.6189 156.1691 49° Northeast 505 581 34,900  Level Aus ATC (RADAR)
08:46PM -30.5727 156.2301 49° Northeast 503 579 34,900  Level Aus ATC (RADAR)
08:47PM -30.5031 156.3217 49° Northeast 504 580 34,900  Level Aus ATC (RADAR)
08:47PM -30.4566 156.3828 49° Northeast 504 580 34,900  Level Aus ATC (RADAR)
08:48PM -30.3396 156.5359 48° Northeast 507 583 35,000 60 Climbing Aus ATC (RADAR)
08:49PM -30.3083 156.5766 48° Northeast 506 582 35,000  Level Aus ATC (RADAR)
08:49PM -30.2616 156.6375 48° Northeast 506 582 35,000  Level Aus ATC (RADAR)
08:50PM -30.1758 156.7492 48° Northeast 505 581 35,000  Level Aus ATC (RADAR)
08:51PM -30.1288 156.8104 48° Northeast 506 582 35,000  Level Aus ATC (RADAR)
08:51PM -30.0440 156.9203 48° Northeast 500 575 35,000  Level Aus ATC (RADAR)
08:52PM -30.0136 156.9597 48° Northeast 497 572 35,000  Level Aus ATC (RADAR)
08:53PM -29.9137 157.0881 48° Northeast 495 570 35,000  Level Aus ATC (RADAR)
08:54PM -29.8465 157.1757 49° Northeast 489 563 35,000  Level Aus ATC (RADAR)
08:54PM -29.8163 157.2149 48° Northeast 488 562 35,000  Level Aus ATC (RADAR)
08:55PM -29.7635 157.2829 48° Northeast 487 560 35,000 180 Level Aus ATC (RADAR)
08:55PM -29.6799 157.3909 48° Northeast 491 565 35,300 480 Climbing Aus ATC (RADAR)
08:56PM -29.6271 157.4597 49° Northeast 492 566 35,800 660 Climbing Aus ATC (RADAR)
08:57PM -29.5432 157.5665 48° Northeast 489 563 36,300 420 Climbing Aus ATC (RADAR)
08:59PM -29.3833 157.7678 48° Northeast 486 559 37,000 300 Climbing Aus ATC (RADAR)
08:59PM -29.3520 157.8066 47° Northeast 489 563 37,000  Level Aus ATC (RADAR)
09:00PM -29.2933 157.8825 48° Northeast 482 555 37,000  Level Aus ATC (RADAR)
09:00PM -29.2270 157.9685 49° Northeast 478 550 37,000  Level Aus ATC (RADAR)
09:01PM -29.1659 158.0451 48° Northeast 482 555 37,000  Level Aus ATC (RADAR)
09:02PM -29.0705 158.1608 47° Northeast 489 563 37,000 -120 Level Aus ATC (RADAR)
09:02PM -29.0473 158.1886 46° Northeast 489 563 36,900 -420 Descending Aus ATC (RADAR)
09:07PM -28.6517 158.6821 47° Northeast 37,000  Climbing Aus ATC (Calculated)
09:07PM -28.6021 158.7435 47° Northeast 37,000  Level Aus ATC (Calculated)
09:09PM -28.4985 158.8715 47° Northeast  Level FlightAware Approximate
09:10PM -28.4204 158.9677 47° Northeast  Level FlightAware Approximate
09:11PM -28.3352 159.0726 47° Northeast  Level FlightAware Approximate
09:11PM -28.2682 159.1542 48° Northeast 37,000  Level Aus ATC (Calculated)
09:12PM -28.2498 159.1772 47° Northeast  Level FlightAware Approximate
09:13PM -28.1503 159.3023 48° Northeast  Level FlightAware Approximate
09:14PM -28.2345 159.1966 228° Southwest  Level FlightAware Approximate
09:14PM -28.0152 159.4628 47° Northeast 37,000  Level Aus ATC (Calculated)
09:15PM -27.9685 159.5195 40° Northeast 37,000  Level Aus ATC (Calculated)
09:17PM -27.7848 159.6943 47° Northeast  Level Estimated
09:18PM -27.6991 159.7992 47° Northeast  Level FlightAware Approximate
09:19PM -27.6133 159.9039 47° Northeast  Level FlightAware Approximate
09:19PM -27.5535 160.0200 47° Northeast 37,000  Level Aus ATC (Calculated)
09:20PM -27.5138 160.0676 47° Northeast 37,000  Level Aus ATC (Calculated)
09:21PM -27.4276 160.1706 47° Northeast  Level FlightAware Approximate
09:22PM -27.3414 160.2735 47° Northeast  Level FlightAware Approximate
09:23PM -27.2551 160.3762 47° Northeast  Level FlightAware Approximate
09:24PM -27.1687 160.4788 47° Northeast  Level FlightAware Approximate
09:24PM -27.1219 160.5342 47° Northeast 37,000  Level Aus ATC (Calculated)
09:25PM -27.0823 160.5812 47° Northeast  Level FlightAware Approximate
09:25PM -27.0557 160.6126 46° Northeast 37,000  Level Aus ATC (Calculated)
09:26PM -26.9271 160.7643 46° Northeast 37,000  Level Aus ATC (Calculated)
09:26PM -26.8668 160.8353 46° Northeast 37,000  Level Aus ATC (Calculated)
09:28PM -26.7584 160.9626 46° Northeast  Level FlightAware Approximate
09:28PM -26.6913 161.0412 46° Northeast 37,000  Level Aus ATC (Calculated)
09:30PM -26.5465 161.2104 46° Northeast  Level FlightAware Approximate
09:30PM -26.5851 161.1653 46° Northeast 37,000  Level Aus ATC (Calculated)
09:31PM -26.4982 161.2667 46° Northeast  Level FlightAware Approximate
09:32PM -26.4112 161.3679 46° Northeast  Level FlightAware Approximate
09:32PM -26.3858 161.3974 46° Northeast 37,000  Level Aus ATC (Calculated)
09:33PM -26.2987 161.4984 46° Northeast  Level FlightAware Approximate
09:34PM -26.2115 161.5992 46° Northeast  Level FlightAware Approximate
09:35PM -26.1242 161.6999 46° Northeast  Level FlightAware Approximate
09:36PM -26.0369 161.8005 46° Northeast  Level FlightAware Approximate
09:37PM -25.9495 161.9009 46° Northeast  Level FlightAware Approximate
09:38PM -25.8621 162.0011 46° Northeast  Level FlightAware Approximate
09:39PM -25.7745 162.1012 46° Northeast  Level FlightAware Approximate
09:40PM -25.6869 162.2012 46° Northeast  Level FlightAware Approximate
09:41PM -25.5993 162.3010 46° Northeast  Level FlightAware Approximate
09:42PM -25.5115 162.4007 46° Northeast  Level FlightAware Approximate
09:42PM -25.4651 162.4533 46° Northeast 37,000  Level Aus ATC (Calculated)
09:43PM -25.3773 162.5527 46° Northeast  Level FlightAware Approximate
09:44PM -25.2894 162.6520 46° Northeast  Level FlightAware Approximate
09:45PM -25.2014 162.7512 46° Northeast  Level FlightAware Approximate
09:46PM -25.1134 162.8502 46° Northeast  Level FlightAware Approximate
09:47PM -25.0253 162.9491 45° Northeast  Level FlightAware Approximate
09:48PM -24.9371 163.0478 45° Northeast  Level FlightAware Approximate
09:49PM -25.0253 162.9491 225° Southwest  Level FlightAware Approximate
09:50PM -24.9371 163.0478 45° Northeast  Level FlightAware Approximate
09:51PM -25.0253 162.9491 225° Southwest  Level FlightAware Approximate
09:52PM -24.9371 163.0478 45° Northeast  Level FlightAware Approximate
09:53PM -25.0253 162.9491 225° Southwest  Level FlightAware Approximate
09:54PM -24.9371 163.0478 45° Northeast  Level FlightAware Approximate
09:55PM -25.0253 162.9491 225° Southwest  Level FlightAware Approximate
09:56PM -24.9371 163.0478 45° Northeast  Level FlightAware Approximate
09:57PM -24.9670 163.0143 45° Northeast  Level FlightAware Approximate
09:58PM -24.8787 163.1129 45° Northeast  Level FlightAware Approximate
09:59PM -24.7904 163.2113 45° Northeast  Level FlightAware Approximate
10:00PM -24.7020 163.3096 45° Northeast  Level FlightAware Approximate
10:01PM -24.6135 163.4077 45° Northeast  Level FlightAware Approximate
10:02PM -24.5249 163.5057 45° Northeast  Level FlightAware Approximate
10:03PM -24.4363 163.6035 45° Northeast  Level FlightAware Approximate
10:04PM -24.3477 163.7012 45° Northeast  Level FlightAware Approximate
10:05PM -24.2589 163.7988 45° Northeast  Level FlightAware Approximate
10:06PM -24.1701 163.8963 45° Northeast  Level FlightAware Approximate
10:07PM -24.0813 163.9936 45° Northeast  Level FlightAware Approximate
10:08PM -23.9923 164.0907 45° Northeast  Level FlightAware Approximate
10:09PM -23.9034 164.1878 45° Northeast  Level FlightAware Approximate
10:10PM -23.8143 164.2847 45° Northeast  Level FlightAware Approximate
10:11PM -23.7252 164.3814 45° Northeast  Level FlightAware Approximate
10:12PM -23.6361 164.4781 45° Northeast  Level FlightAware Approximate
10:13PM -23.5468 164.5746 45° Northeast  Level FlightAware Approximate
10:14PM -23.4576 164.6709 45° Northeast  Level FlightAware Approximate
10:15PM -23.3682 164.7672 45° Northeast  Level FlightAware Approximate
10:16PM -23.2788 164.8633 45° Northeast  Level FlightAware Approximate
10:17PM -23.1893 164.9592 45° Northeast  Level FlightAware Approximate
10:18PM -23.0998 165.0551 45° Northeast  Level FlightAware Approximate
10:19PM -23.0102 165.1508 45° Northeast  Level FlightAware Approximate
10:20PM -22.9205 165.2463 44° Northeast  Level FlightAware Approximate
10:21PM -22.8308 165.3418 44° Northeast  Level FlightAware Approximate
10:22PM -22.7410 165.4371 44° Northeast  Level FlightAware Approximate
10:23PM -22.6512 165.5323 44° Northeast  Level FlightAware Approximate
10:24PM -22.5613 165.6274 44° Northeast  Level FlightAware Approximate
10:25PM -22.4714 165.7224 44° Northeast  Level FlightAware Approximate
10:26PM -22.3814 165.8172 44° Northeast  Level FlightAware Approximate
10:27PM -22.2914 165.9119 44° Northeast  Level FlightAware Approximate
10:28PM -22.2013 166.0065 44° Northeast  Level FlightAware Approximate
10:29PM -22.1111 166.1009 44° Northeast  Level FlightAware Approximate
10:30PM -22.0209 166.1953 44° Northeast  Level FlightAware Approximate
10:31PM -21.9104 166.2572 24° Northeast  Level FlightAware Approximate
10:32PM -21.7957 166.3123 24° Northeast  Level FlightAware Approximate
10:33PM -21.6809 166.3672 24° Northeast  Level FlightAware Approximate
10:34PM -21.5660 166.4220 24° Northeast  Level FlightAware Approximate
10:35PM -21.4512 166.4768 24° Northeast  Level FlightAware Approximate
10:36PM -21.3364 166.5314 24° Northeast  Level FlightAware Approximate
10:37PM -21.2215 166.5860 24° Northeast  Level FlightAware Approximate
10:38PM -21.1066 166.6405 24° Northeast  Level FlightAware Approximate
10:39PM -20.9917 166.6950 24° Northeast  Level FlightAware Approximate
10:40PM -20.8768 166.7493 24° Northeast  Level FlightAware Approximate
10:41PM -20.7618 166.8035 24° Northeast  Level FlightAware Approximate
10:42PM -20.6469 166.8577 24° Northeast  Level FlightAware Approximate
10:43PM -20.5319 166.9118 24° Northeast  Level FlightAware Approximate
10:44PM -20.4169 166.9658 24° Northeast  Level FlightAware Approximate
10:45PM -20.3019 167.0197 24° Northeast  Level FlightAware Approximate
10:46PM -20.1869 167.0736 24° Northeast  Level FlightAware Approximate
10:47PM -20.0719 167.1273 24° Northeast  Level FlightAware Approximate
10:48PM -19.9568 167.1810 24° Northeast  Level FlightAware Approximate
10:49PM -19.8417 167.2346 24° Northeast  Level FlightAware Approximate
10:50PM -19.7267 167.2882 24° Northeast  Level FlightAware Approximate
10:51PM -19.6115 167.3416 24° Northeast  Level FlightAware Approximate
10:52PM -19.4964 167.3950 24° Northeast  Level FlightAware Approximate
10:53PM -19.3815 167.4487 24° Northeast  Level FlightAware Approximate
10:54PM -19.2665 167.5023 24° Northeast  Level FlightAware Approximate
10:55PM -19.1514 167.5558 24° Northeast  Level FlightAware Approximate
10:56PM -19.0364 167.6092 24° Northeast  Level FlightAware Approximate
10:57PM -18.9214 167.6626 24° Northeast  Level FlightAware Approximate
10:58PM -18.8063 167.7159 24° Northeast  Level FlightAware Approximate
10:59PM -18.6912 167.7691 24° Northeast  Level FlightAware Approximate
11:00PM -18.5762 167.8223 24° Northeast  Level FlightAware Approximate
11:01PM -18.4611 167.8755 24° Northeast  Level FlightAware Approximate
11:02PM -18.3461 167.9288 24° Northeast  Level FlightAware Approximate
11:03PM -18.2311 167.9820 24° Northeast  Level FlightAware Approximate
11:04PM -18.1160 168.0351 24° Northeast  Level FlightAware Approximate
11:05PM -18.0010 168.0882 24° Northeast  Level FlightAware Approximate
11:06PM -17.8859 168.1411 24° Northeast  Level FlightAware Approximate
11:07PM -17.7708 168.1940 24° Northeast  Level FlightAware Approximate
11:08PM -17.6621 168.2439 24° Northeast  Level FlightAware Approximate
11:09PM -17.6993 168.3198 24° Northeast  Level Estimated
11:10PM -17.6993 168.3198 24° Northeast  Level Estimated
11:11PM -17.6993 168.3198 24° Northeast  Level Estimated
11:12PM -17.6993 168.3198 24° Northeast  Level Estimated
11:13PM -17.6993 168.3198 24° Northeast  Level Estimated
11:14PM -17.6993 168.3198 24° Northeast  Level Estimated
11:15PM -17.6993 168.3198 24° Northeast  Level Estimated
11:16PM -17.6993 168.3198 24° Northeast  Level Estimated
11:17PM -17.6993 168.3198 24° Northeast  Level Estimated